sensor_id;sensor_type;location;lat;lon;timestamp;P1;durP1;ratioP1;P2;durP2;ratioP2
83139;SDS011;73027;54.208;19.128;2023-10-19T00:00:19;15.07;;;5.90;;
83139;SDS011;73027;54.208;19.128;2023-10-19T00:02:45;15.55;;;5.50;;
83139;SDS011;73027;54.208;19.128;2023-10-19T00:05:12;14.45;;;5.53;;
83139;SDS011;73027;54.208;19.128;2023-10-19T00:07:39;12.27;;;5.00;;
83139;SDS011;73027;54.208;19.128;2023-10-19T00:10:06;13.13;;;5.20;;
83139;SDS011;73027;54.208;19.128;2023-10-19T00:12:31;13.23;;;5.00;;
83139;SDS011;73027;54.208;19.128;2023-10-19T00:14:57;11.57;;;4.80;;
83139;SDS011;73027;54.208;19.128;2023-10-19T00:17:22;12.15;;;5.15;;
83139;SDS011;73027;54.208;19.128;2023-10-19T00:19:48;12.02;;;4.72;;
83139;SDS011;73027;54.208;19.128;2023-10-19T00:22:32;12.85;;;4.95;;
83139;SDS011;73027;54.208;19.128;2023-10-19T00:25:01;12.48;;;4.47;;
83139;SDS011;73027;54.208;19.128;2023-10-19T00:27:29;13.07;;;5.80;;
83139;SDS011;73027;54.208;19.128;2023-10-19T00:29:54;11.63;;;4.32;;
83139;SDS011;73027;54.208;19.128;2023-10-19T00:32:30;12.45;;;4.57;;
83139;SDS011;73027;54.208;19.128;2023-10-19T00:34:56;16.83;;;5.22;;
83139;SDS011;73027;54.208;19.128;2023-10-19T00:37:22;15.82;;;4.93;;
83139;SDS011;73027;54.208;19.128;2023-10-19T00:39:55;13.02;;;5.30;;
83139;SDS011;73027;54.208;19.128;2023-10-19T00:42:39;13.38;;;4.65;;
83139;SDS011;73027;54.208;19.128;2023-10-19T00:45:10;13.00;;;4.55;;
83139;SDS011;73027;54.208;19.128;2023-10-19T00:47:38;12.57;;;4.65;;
83139;SDS011;73027;54.208;19.128;2023-10-19T00:50:07;12.52;;;4.57;;
83139;SDS011;73027;54.208;19.128;2023-10-19T00:52:42;14.65;;;4.50;;
83139;SDS011;73027;54.208;19.128;2023-10-19T00:55:15;12.13;;;4.97;;
83139;SDS011;73027;54.208;19.128;2023-10-19T00:57:43;11.68;;;4.65;;
83139;SDS011;73027;54.208;19.128;2023-10-19T01:00:13;11.82;;;5.03;;
83139;SDS011;73027;54.208;19.128;2023-10-19T01:02:47;12.52;;;5.03;;
83139;SDS011;73027;54.208;19.128;2023-10-19T01:05:16;12.90;;;5.28;;
83139;SDS011;73027;54.208;19.128;2023-10-19T01:07:46;12.45;;;4.80;;
83139;SDS011;73027;54.208;19.128;2023-10-19T01:10:18;13.68;;;4.88;;
83139;SDS011;73027;54.208;19.128;2023-10-19T01:12:46;14.32;;;6.88;;
83139;SDS011;73027;54.208;19.128;2023-10-19T01:15:12;13.30;;;6.03;;
83139;SDS011;73027;54.208;19.128;2023-10-19T01:17:42;9.93;;;4.45;;
83139;SDS011;73027;54.208;19.128;2023-10-19T01:20:19;10.35;;;4.22;;
83139;SDS011;73027;54.208;19.128;2023-10-19T01:23:00;12.95;;;4.57;;
83139;SDS011;73027;54.208;19.128;2023-10-19T01:25:45;14.15;;;4.60;;
83139;SDS011;73027;54.208;19.128;2023-10-19T01:28:32;13.43;;;4.93;;
83139;SDS011;73027;54.208;19.128;2023-10-19T01:31:05;13.90;;;4.90;;
83139;SDS011;73027;54.208;19.128;2023-10-19T01:33:41;10.45;;;4.75;;
83139;SDS011;73027;54.208;19.128;2023-10-19T01:36:10;11.55;;;5.13;;
83139;SDS011;73027;54.208;19.128;2023-10-19T01:38:37;17.38;;;6.45;;
83139;SDS011;73027;54.208;19.128;2023-10-19T01:41:04;16.63;;;6.43;;
83139;SDS011;73027;54.208;19.128;2023-10-19T01:43:41;11.68;;;5.28;;
83139;SDS011;73027;54.208;19.128;2023-10-19T01:46:08;14.02;;;6.07;;
83139;SDS011;73027;54.208;19.128;2023-10-19T01:48:37;14.77;;;5.50;;
83139;SDS011;73027;54.208;19.128;2023-10-19T01:51:05;13.77;;;5.07;;
83139;SDS011;73027;54.208;19.128;2023-10-19T01:53:35;11.98;;;5.22;;
83139;SDS011;73027;54.208;19.128;2023-10-19T01:56:01;12.15;;;5.03;;
83139;SDS011;73027;54.208;19.128;2023-10-19T01:58:30;12.05;;;4.82;;
83139;SDS011;73027;54.208;19.128;2023-10-19T02:01:01;11.80;;;5.03;;
83139;SDS011;73027;54.208;19.128;2023-10-19T02:04:04;12.48;;;5.10;;
83139;SDS011;73027;54.208;19.128;2023-10-19T02:06:31;13.73;;;5.68;;
83139;SDS011;73027;54.208;19.128;2023-10-19T02:08:59;11.18;;;4.68;;
83139;SDS011;73027;54.208;19.128;2023-10-19T02:11:34;12.23;;;4.90;;
83139;SDS011;73027;54.208;19.128;2023-10-19T02:14:03;16.33;;;5.85;;
83139;SDS011;73027;54.208;19.128;2023-10-19T02:16:39;20.02;;;7.13;;
83139;SDS011;73027;54.208;19.128;2023-10-19T02:19:19;16.63;;;5.43;;
83139;SDS011;73027;54.208;19.128;2023-10-19T02:21:50;13.48;;;5.70;;
83139;SDS011;73027;54.208;19.128;2023-10-19T02:24:17;16.00;;;5.00;;
83139;SDS011;73027;54.208;19.128;2023-10-19T02:26:44;14.75;;;4.50;;
83139;SDS011;73027;54.208;19.128;2023-10-19T02:29:12;11.45;;;4.80;;
83139;SDS011;73027;54.208;19.128;2023-10-19T02:31:41;14.68;;;5.28;;
83139;SDS011;73027;54.208;19.128;2023-10-19T02:34:07;12.50;;;4.78;;
83139;SDS011;73027;54.208;19.128;2023-10-19T02:36:35;13.05;;;4.80;;
83139;SDS011;73027;54.208;19.128;2023-10-19T02:39:05;12.48;;;4.85;;
83139;SDS011;73027;54.208;19.128;2023-10-19T02:41:36;13.30;;;4.60;;
83139;SDS011;73027;54.208;19.128;2023-10-19T02:46:48;11.77;;;4.82;;
83139;SDS011;73027;54.208;19.128;2023-10-19T02:49:17;13.05;;;5.55;;
83139;SDS011;73027;54.208;19.128;2023-10-19T02:51:46;12.18;;;5.43;;
83139;SDS011;73027;54.208;19.128;2023-10-19T02:54:13;13.38;;;5.88;;
83139;SDS011;73027;54.208;19.128;2023-10-19T02:56:50;13.52;;;5.75;;
83139;SDS011;73027;54.208;19.128;2023-10-19T02:59:20;15.25;;;6.47;;
83139;SDS011;73027;54.208;19.128;2023-10-19T03:01:47;15.60;;;6.82;;
83139;SDS011;73027;54.208;19.128;2023-10-19T03:04:14;20.48;;;7.53;;
83139;SDS011;73027;54.208;19.128;2023-10-19T03:06:40;17.83;;;7.35;;
83139;SDS011;73027;54.208;19.128;2023-10-19T03:09:06;17.80;;;6.63;;
83139;SDS011;73027;54.208;19.128;2023-10-19T03:11:42;16.80;;;6.57;;
83139;SDS011;73027;54.208;19.128;2023-10-19T03:14:09;15.68;;;6.93;;
83139;SDS011;73027;54.208;19.128;2023-10-19T03:16:36;16.20;;;7.20;;
83139;SDS011;73027;54.208;19.128;2023-10-19T03:19:03;18.67;;;8.13;;
83139;SDS011;73027;54.208;19.128;2023-10-19T03:21:29;16.55;;;7.25;;
83139;SDS011;73027;54.208;19.128;2023-10-19T03:23:59;15.15;;;7.55;;
83139;SDS011;73027;54.208;19.128;2023-10-19T03:26:30;13.52;;;6.50;;
83139;SDS011;73027;54.208;19.128;2023-10-19T03:28:58;12.02;;;5.38;;
83139;SDS011;73027;54.208;19.128;2023-10-19T03:31:27;13.77;;;5.28;;
83139;SDS011;73027;54.208;19.128;2023-10-19T03:33:53;11.85;;;4.93;;
83139;SDS011;73027;54.208;19.128;2023-10-19T03:36:24;12.43;;;5.38;;
83139;SDS011;73027;54.208;19.128;2023-10-19T03:38:50;13.55;;;5.60;;
83139;SDS011;73027;54.208;19.128;2023-10-19T03:41:18;12.60;;;4.85;;
83139;SDS011;73027;54.208;19.128;2023-10-19T03:43:47;9.50;;;4.25;;
83139;SDS011;73027;54.208;19.128;2023-10-19T03:46:14;10.43;;;4.65;;
83139;SDS011;73027;54.208;19.128;2023-10-19T03:48:47;10.88;;;4.40;;
83139;SDS011;73027;54.208;19.128;2023-10-19T03:51:13;11.02;;;4.78;;
83139;SDS011;73027;54.208;19.128;2023-10-19T03:53:39;10.63;;;4.13;;
83139;SDS011;73027;54.208;19.128;2023-10-19T03:56:09;10.25;;;3.63;;
83139;SDS011;73027;54.208;19.128;2023-10-19T03:58:36;20.38;;;4.57;;
83139;SDS011;73027;54.208;19.128;2023-10-19T04:01:03;18.15;;;3.60;;
83139;SDS011;73027;54.208;19.128;2023-10-19T04:03:30;9.80;;;3.50;;
83139;SDS011;73027;54.208;19.128;2023-10-19T04:05:56;8.85;;;2.95;;
83139;SDS011;73027;54.208;19.128;2023-10-19T04:08:25;9.32;;;3.17;;
83139;SDS011;73027;54.208;19.128;2023-10-19T04:10:51;8.75;;;3.25;;
83139;SDS011;73027;54.208;19.128;2023-10-19T04:13:37;12.68;;;3.20;;
83139;SDS011;73027;54.208;19.128;2023-10-19T04:16:05;13.30;;;3.70;;
83139;SDS011;73027;54.208;19.128;2023-10-19T04:18:34;9.05;;;3.35;;
83139;SDS011;73027;54.208;19.128;2023-10-19T04:21:03;11.43;;;3.40;;
83139;SDS011;73027;54.208;19.128;2023-10-19T04:23:29;8.60;;;3.25;;
83139;SDS011;73027;54.208;19.128;2023-10-19T04:25:59;7.70;;;2.55;;
83139;SDS011;73027;54.208;19.128;2023-10-19T04:28:30;6.68;;;2.45;;
83139;SDS011;73027;54.208;19.128;2023-10-19T04:30:56;11.70;;;3.10;;
83139;SDS011;73027;54.208;19.128;2023-10-19T04:33:27;8.82;;;3.13;;
83139;SDS011;73027;54.208;19.128;2023-10-19T04:35:57;8.07;;;2.28;;
83139;SDS011;73027;54.208;19.128;2023-10-19T04:38:25;7.57;;;2.10;;
83139;SDS011;73027;54.208;19.128;2023-10-19T04:40:51;6.50;;;2.00;;
83139;SDS011;73027;54.208;19.128;2023-10-19T04:43:17;6.07;;;1.80;;
83139;SDS011;73027;54.208;19.128;2023-10-19T04:45:42;5.65;;;2.03;;
83139;SDS011;73027;54.208;19.128;2023-10-19T04:48:09;6.03;;;1.67;;
83139;SDS011;73027;54.208;19.128;2023-10-19T04:50:35;8.13;;;1.77;;
83139;SDS011;73027;54.208;19.128;2023-10-19T04:53:01;6.32;;;1.55;;
83139;SDS011;73027;54.208;19.128;2023-10-19T04:55:27;9.18;;;4.15;;
83139;SDS011;73027;54.208;19.128;2023-10-19T05:00:21;6.03;;;1.60;;
83139;SDS011;73027;54.208;19.128;2023-10-19T05:05:17;8.25;;;1.50;;
83139;SDS011;73027;54.208;19.128;2023-10-19T05:07:42;5.63;;;1.40;;
83139;SDS011;73027;54.208;19.128;2023-10-19T05:10:08;5.07;;;1.55;;
83139;SDS011;73027;54.208;19.128;2023-10-19T05:12:34;7.97;;;2.67;;
83139;SDS011;73027;54.208;19.128;2023-10-19T05:14:59;11.77;;;4.07;;
83139;SDS011;73027;54.208;19.128;2023-10-19T05:17:25;10.18;;;3.72;;
83139;SDS011;73027;54.208;19.128;2023-10-19T05:19:52;21.02;;;8.70;;
83139;SDS011;73027;54.208;19.128;2023-10-19T05:22:18;39.35;;;17.63;;
83139;SDS011;73027;54.208;19.128;2023-10-19T05:24:43;25.35;;;13.18;;
83139;SDS011;73027;54.208;19.128;2023-10-19T05:27:09;19.98;;;11.43;;
83139;SDS011;73027;54.208;19.128;2023-10-19T05:29:35;10.35;;;4.95;;
83139;SDS011;73027;54.208;19.128;2023-10-19T05:32:01;35.63;;;9.48;;
83139;SDS011;73027;54.208;19.128;2023-10-19T05:34:28;32.25;;;10.35;;
83139;SDS011;73027;54.208;19.128;2023-10-19T05:37:00;39.33;;;15.43;;
83139;SDS011;73027;54.208;19.128;2023-10-19T05:39:27;82.15;;;29.98;;
83139;SDS011;73027;54.208;19.128;2023-10-19T05:41:56;25.77;;;9.65;;
83139;SDS011;73027;54.208;19.128;2023-10-19T05:44:25;24.23;;;10.23;;
83139;SDS011;73027;54.208;19.128;2023-10-19T05:46:51;24.85;;;9.73;;
83139;SDS011;73027;54.208;19.128;2023-10-19T05:49:17;36.15;;;16.02;;
83139;SDS011;73027;54.208;19.128;2023-10-19T05:51:42;19.90;;;8.60;;
83139;SDS011;73027;54.208;19.128;2023-10-19T05:54:09;19.52;;;10.10;;
83139;SDS011;73027;54.208;19.128;2023-10-19T05:56:35;28.20;;;14.95;;
83139;SDS011;73027;54.208;19.128;2023-10-19T05:59:01;16.40;;;7.47;;
83139;SDS011;73027;54.208;19.128;2023-10-19T06:01:27;11.27;;;4.80;;
83139;SDS011;73027;54.208;19.128;2023-10-19T06:03:52;18.90;;;9.07;;
83139;SDS011;73027;54.208;19.128;2023-10-19T06:06:19;20.60;;;11.10;;
83139;SDS011;73027;54.208;19.128;2023-10-19T06:08:44;13.25;;;6.10;;
83139;SDS011;73027;54.208;19.128;2023-10-19T06:11:10;11.13;;;5.30;;
83139;SDS011;73027;54.208;19.128;2023-10-19T06:13:35;11.70;;;5.10;;
83139;SDS011;73027;54.208;19.128;2023-10-19T06:16:01;16.67;;;8.45;;
83139;SDS011;73027;54.208;19.128;2023-10-19T06:18:26;27.05;;;14.18;;
83139;SDS011;73027;54.208;19.128;2023-10-19T06:20:52;40.72;;;18.55;;
83139;SDS011;73027;54.208;19.128;2023-10-19T06:23:20;38.08;;;18.70;;
83139;SDS011;73027;54.208;19.128;2023-10-19T06:25:45;23.27;;;10.50;;
83139;SDS011;73027;54.208;19.128;2023-10-19T06:28:11;16.83;;;7.38;;
83139;SDS011;73027;54.208;19.128;2023-10-19T06:30:37;10.15;;;2.72;;
83139;SDS011;73027;54.208;19.128;2023-10-19T06:33:02;5.00;;;1.50;;
83139;SDS011;73027;54.208;19.128;2023-10-19T06:35:29;4.78;;;1.33;;
83139;SDS011;73027;54.208;19.128;2023-10-19T06:37:56;5.28;;;1.52;;
83139;SDS011;73027;54.208;19.128;2023-10-19T06:40:24;15.07;;;6.05;;
83139;SDS011;73027;54.208;19.128;2023-10-19T06:42:51;10.77;;;5.40;;
83139;SDS011;73027;54.208;19.128;2023-10-19T06:45:21;12.75;;;6.35;;
83139;SDS011;73027;54.208;19.128;2023-10-19T06:47:47;12.57;;;5.55;;
83139;SDS011;73027;54.208;19.128;2023-10-19T06:50:20;15.85;;;6.90;;
83139;SDS011;73027;54.208;19.128;2023-10-19T06:52:47;12.88;;;5.65;;
83139;SDS011;73027;54.208;19.128;2023-10-19T06:55:14;14.70;;;4.78;;
83139;SDS011;73027;54.208;19.128;2023-10-19T06:57:44;21.60;;;9.23;;
83139;SDS011;73027;54.208;19.128;2023-10-19T07:00:12;39.85;;;12.57;;
83139;SDS011;73027;54.208;19.128;2023-10-19T07:02:41;24.02;;;11.23;;
83139;SDS011;73027;54.208;19.128;2023-10-19T07:05:08;14.27;;;6.93;;
83139;SDS011;73027;54.208;19.128;2023-10-19T07:07:41;8.50;;;2.35;;
83139;SDS011;73027;54.208;19.128;2023-10-19T07:10:08;5.55;;;2.03;;
83139;SDS011;73027;54.208;19.128;2023-10-19T07:12:42;7.57;;;1.42;;
83139;SDS011;73027;54.208;19.128;2023-10-19T07:15:09;4.65;;;1.50;;
83139;SDS011;73027;54.208;19.128;2023-10-19T07:17:44;6.97;;;1.02;;
83139;SDS011;73027;54.208;19.128;2023-10-19T07:20:11;10.75;;;1.45;;
83139;SDS011;73027;54.208;19.128;2023-10-19T07:22:52;5.43;;;1.45;;
83139;SDS011;73027;54.208;19.128;2023-10-19T07:25:21;7.38;;;1.80;;
83139;SDS011;73027;54.208;19.128;2023-10-19T07:27:49;6.68;;;1.80;;
83139;SDS011;73027;54.208;19.128;2023-10-19T07:30:15;5.22;;;2.00;;
83139;SDS011;73027;54.208;19.128;2023-10-19T07:32:45;8.85;;;1.75;;
83139;SDS011;73027;54.208;19.128;2023-10-19T07:35:13;7.93;;;1.33;;
83139;SDS011;73027;54.208;19.128;2023-10-19T07:37:39;6.63;;;1.10;;
83139;SDS011;73027;54.208;19.128;2023-10-19T07:40:05;5.63;;;1.25;;
83139;SDS011;73027;54.208;19.128;2023-10-19T07:42:31;4.78;;;1.20;;
83139;SDS011;73027;54.208;19.128;2023-10-19T07:44:58;3.80;;;1.13;;
83139;SDS011;73027;54.208;19.128;2023-10-19T07:47:24;6.88;;;1.10;;
83139;SDS011;73027;54.208;19.128;2023-10-19T07:49:49;5.85;;;1.75;;
83139;SDS011;73027;54.208;19.128;2023-10-19T07:52:17;13.23;;;1.73;;
83139;SDS011;73027;54.208;19.128;2023-10-19T07:54:42;3.83;;;1.30;;
83139;SDS011;73027;54.208;19.128;2023-10-19T07:57:08;5.85;;;0.93;;
83139;SDS011;73027;54.208;19.128;2023-10-19T07:59:33;5.03;;;1.00;;
83139;SDS011;73027;54.208;19.128;2023-10-19T08:01:59;4.15;;;0.98;;
83139;SDS011;73027;54.208;19.128;2023-10-19T08:04:28;6.13;;;1.13;;
83139;SDS011;73027;54.208;19.128;2023-10-19T08:06:53;5.70;;;1.10;;
83139;SDS011;73027;54.208;19.128;2023-10-19T08:09:20;4.85;;;1.13;;
83139;SDS011;73027;54.208;19.128;2023-10-19T08:11:48;3.00;;;0.90;;
83139;SDS011;73027;54.208;19.128;2023-10-19T08:14:26;3.72;;;1.20;;
83139;SDS011;73027;54.208;19.128;2023-10-19T08:16:52;4.60;;;1.00;;
83139;SDS011;73027;54.208;19.128;2023-10-19T08:19:18;5.40;;;1.05;;
83139;SDS011;73027;54.208;19.128;2023-10-19T08:21:44;4.18;;;1.20;;
83139;SDS011;73027;54.208;19.128;2023-10-19T08:24:10;6.90;;;0.95;;
83139;SDS011;73027;54.208;19.128;2023-10-19T08:26:46;3.55;;;0.80;;
83139;SDS011;73027;54.208;19.128;2023-10-19T08:29:12;3.58;;;0.82;;
83139;SDS011;73027;54.208;19.128;2023-10-19T08:31:40;2.90;;;0.65;;
83139;SDS011;73027;54.208;19.128;2023-10-19T08:34:07;7.40;;;1.10;;
83139;SDS011;73027;54.208;19.128;2023-10-19T08:36:35;8.70;;;1.20;;
83139;SDS011;73027;54.208;19.128;2023-10-19T08:41:31;4.72;;;1.10;;
83139;SDS011;73027;54.208;19.128;2023-10-19T08:43:57;4.85;;;1.20;;
83139;SDS011;73027;54.208;19.128;2023-10-19T08:46:23;4.60;;;1.20;;
83139;SDS011;73027;54.208;19.128;2023-10-19T08:48:50;5.60;;;1.45;;
83139;SDS011;73027;54.208;19.128;2023-10-19T08:51:16;5.95;;;1.75;;
83139;SDS011;73027;54.208;19.128;2023-10-19T08:53:43;9.05;;;1.55;;
83139;SDS011;73027;54.208;19.128;2023-10-19T08:56:09;6.70;;;2.00;;
83139;SDS011;73027;54.208;19.128;2023-10-19T08:58:37;7.38;;;1.30;;
83139;SDS011;73027;54.208;19.128;2023-10-19T09:01:02;7.10;;;1.23;;
83139;SDS011;73027;54.208;19.128;2023-10-19T09:03:35;7.38;;;1.70;;
83139;SDS011;73027;54.208;19.128;2023-10-19T09:06:04;7.63;;;1.48;;
83139;SDS011;73027;54.208;19.128;2023-10-19T09:08:30;4.97;;;1.52;;
83139;SDS011;73027;54.208;19.128;2023-10-19T09:11:08;13.63;;;2.15;;
83139;SDS011;73027;54.208;19.128;2023-10-19T09:13:47;6.43;;;1.73;;
83139;SDS011;73027;54.208;19.128;2023-10-19T09:16:21;6.97;;;1.73;;
83139;SDS011;73027;54.208;19.128;2023-10-19T09:18:48;4.88;;;1.20;;
83139;SDS011;73027;54.208;19.128;2023-10-19T09:21:17;4.72;;;1.23;;
83139;SDS011;73027;54.208;19.128;2023-10-19T09:23:53;10.65;;;1.40;;
83139;SDS011;73027;54.208;19.128;2023-10-19T09:26:23;5.53;;;1.70;;
83139;SDS011;73027;54.208;19.128;2023-10-19T09:28:49;7.78;;;1.30;;
83139;SDS011;73027;54.208;19.128;2023-10-19T09:31:16;12.25;;;1.70;;
83139;SDS011;73027;54.208;19.128;2023-10-19T09:33:44;5.32;;;1.38;;
83139;SDS011;73027;54.208;19.128;2023-10-19T09:36:10;8.02;;;1.48;;
83139;SDS011;73027;54.208;19.128;2023-10-19T09:38:43;4.63;;;1.02;;
83139;SDS011;73027;54.208;19.128;2023-10-19T09:41:12;4.63;;;1.17;;
83139;SDS011;73027;54.208;19.128;2023-10-19T09:43:41;6.38;;;1.20;;
83139;SDS011;73027;54.208;19.128;2023-10-19T09:46:09;4.55;;;1.30;;
83139;SDS011;73027;54.208;19.128;2023-10-19T09:48:40;4.65;;;1.25;;
83139;SDS011;73027;54.208;19.128;2023-10-19T09:51:07;6.32;;;1.10;;
83139;SDS011;73027;54.208;19.128;2023-10-19T09:53:34;7.30;;;1.90;;
83139;SDS011;73027;54.208;19.128;2023-10-19T09:56:02;5.88;;;1.58;;
83139;SDS011;73027;54.208;19.128;2023-10-19T09:58:35;6.90;;;1.60;;
83139;SDS011;73027;54.208;19.128;2023-10-19T10:01:04;8.30;;;2.05;;
83139;SDS011;73027;54.208;19.128;2023-10-19T10:06:11;5.70;;;1.80;;
83139;SDS011;73027;54.208;19.128;2023-10-19T10:08:39;5.45;;;1.73;;
83139;SDS011;73027;54.208;19.128;2023-10-19T10:11:21;7.63;;;1.63;;
83139;SDS011;73027;54.208;19.128;2023-10-19T10:13:48;11.65;;;1.77;;
83139;SDS011;73027;54.208;19.128;2023-10-19T10:16:27;7.85;;;1.60;;
83139;SDS011;73027;54.208;19.128;2023-10-19T10:18:57;5.03;;;1.85;;
83139;SDS011;73027;54.208;19.128;2023-10-19T10:21:27;3.70;;;1.15;;
83139;SDS011;73027;54.208;19.128;2023-10-19T10:23:57;27.23;;;11.77;;
83139;SDS011;73027;54.208;19.128;2023-10-19T10:26:25;13.65;;;7.35;;
83139;SDS011;73027;54.208;19.128;2023-10-19T10:29:10;10.73;;;5.07;;
83139;SDS011;73027;54.208;19.128;2023-10-19T10:31:56;9.68;;;4.95;;
83139;SDS011;73027;54.208;19.128;2023-10-19T10:36:59;7.22;;;2.38;;
83139;SDS011;73027;54.208;19.128;2023-10-19T10:39:29;7.47;;;2.53;;
83139;SDS011;73027;54.208;19.128;2023-10-19T10:42:03;10.02;;;1.80;;
83139;SDS011;73027;54.208;19.128;2023-10-19T10:44:46;7.63;;;2.00;;
83139;SDS011;73027;54.208;19.128;2023-10-19T10:47:19;7.25;;;1.75;;
83139;SDS011;73027;54.208;19.128;2023-10-19T10:52:35;7.05;;;2.03;;
83139;SDS011;73027;54.208;19.128;2023-10-19T10:55:08;5.43;;;1.55;;
83139;SDS011;73027;54.208;19.128;2023-10-19T10:57:38;5.68;;;1.52;;
83139;SDS011;73027;54.208;19.128;2023-10-19T11:00:05;5.40;;;2.00;;
83139;SDS011;73027;54.208;19.128;2023-10-19T11:02:33;6.60;;;1.60;;
83139;SDS011;73027;54.208;19.128;2023-10-19T11:05:00;9.93;;;2.13;;
83139;SDS011;73027;54.208;19.128;2023-10-19T11:07:26;5.13;;;1.70;;
83139;SDS011;73027;54.208;19.128;2023-10-19T11:09:52;20.90;;;9.10;;
83139;SDS011;73027;54.208;19.128;2023-10-19T11:12:17;36.97;;;20.63;;
83139;SDS011;73027;54.208;19.128;2023-10-19T11:14:56;26.00;;;14.55;;
83139;SDS011;73027;54.208;19.128;2023-10-19T11:17:24;39.85;;;22.95;;
83139;SDS011;73027;54.208;19.128;2023-10-19T11:19:56;17.30;;;7.82;;
83139;SDS011;73027;54.208;19.128;2023-10-19T11:22:22;31.67;;;12.52;;
83139;SDS011;73027;54.208;19.128;2023-10-19T11:24:51;14.18;;;5.15;;
83139;SDS011;73027;54.208;19.128;2023-10-19T11:27:25;13.27;;;6.22;;
83139;SDS011;73027;54.208;19.128;2023-10-19T11:32:22;8.25;;;3.40;;
83139;SDS011;73027;54.208;19.128;2023-10-19T11:34:50;10.45;;;4.15;;
83139;SDS011;73027;54.208;19.128;2023-10-19T11:37:22;10.45;;;5.30;;
83139;SDS011;73027;54.208;19.128;2023-10-19T11:39:47;9.80;;;4.57;;
83139;SDS011;73027;54.208;19.128;2023-10-19T11:42:15;11.50;;;3.20;;
83139;SDS011;73027;54.208;19.128;2023-10-19T11:44:40;10.25;;;4.43;;
83139;SDS011;73027;54.208;19.128;2023-10-19T11:47:06;9.82;;;2.85;;
83139;SDS011;73027;54.208;19.128;2023-10-19T11:49:31;8.43;;;2.95;;
83139;SDS011;73027;54.208;19.128;2023-10-19T11:51:57;8.98;;;2.97;;
83139;SDS011;73027;54.208;19.128;2023-10-19T11:54:23;9.30;;;3.80;;
83139;SDS011;73027;54.208;19.128;2023-10-19T11:56:48;7.80;;;2.78;;
83139;SDS011;73027;54.208;19.128;2023-10-19T11:59:14;8.27;;;3.03;;
83139;SDS011;73027;54.208;19.128;2023-10-19T12:01:40;10.15;;;2.33;;
83139;SDS011;73027;54.208;19.128;2023-10-19T12:04:07;11.20;;;1.70;;
83139;SDS011;73027;54.208;19.128;2023-10-19T12:06:34;6.55;;;1.65;;
83139;SDS011;73027;54.208;19.128;2023-10-19T12:09:00;5.13;;;1.73;;
83139;SDS011;73027;54.208;19.128;2023-10-19T12:11:31;8.65;;;2.20;;
83139;SDS011;73027;54.208;19.128;2023-10-19T12:13:57;6.72;;;2.22;;
83139;SDS011;73027;54.208;19.128;2023-10-19T12:18:50;6.97;;;1.70;;
83139;SDS011;73027;54.208;19.128;2023-10-19T12:21:15;4.85;;;1.70;;
83139;SDS011;73027;54.208;19.128;2023-10-19T12:23:43;16.58;;;2.13;;
83139;SDS011;73027;54.208;19.128;2023-10-19T12:26:09;5.63;;;1.17;;
83139;SDS011;73027;54.208;19.128;2023-10-19T12:28:40;6.63;;;1.33;;
83139;SDS011;73027;54.208;19.128;2023-10-19T12:31:09;5.72;;;1.52;;
83139;SDS011;73027;54.208;19.128;2023-10-19T12:33:35;4.70;;;1.23;;
83139;SDS011;73027;54.208;19.128;2023-10-19T12:36:03;9.18;;;1.80;;
83139;SDS011;73027;54.208;19.128;2023-10-19T12:38:48;7.35;;;1.90;;
83139;SDS011;73027;54.208;19.128;2023-10-19T12:41:14;7.63;;;1.42;;
83139;SDS011;73027;54.208;19.128;2023-10-19T12:43:40;13.90;;;1.40;;
83139;SDS011;73027;54.208;19.128;2023-10-19T12:46:06;5.40;;;1.52;;
83139;SDS011;73027;54.208;19.128;2023-10-19T12:48:33;5.95;;;1.85;;
83139;SDS011;73027;54.208;19.128;2023-10-19T12:51:00;7.53;;;2.08;;
83139;SDS011;73027;54.208;19.128;2023-10-19T12:53:36;6.13;;;1.60;;
83139;SDS011;73027;54.208;19.128;2023-10-19T12:56:04;6.38;;;1.40;;
83139;SDS011;73027;54.208;19.128;2023-10-19T12:58:30;7.00;;;2.13;;
83139;SDS011;73027;54.208;19.128;2023-10-19T13:00:57;10.48;;;1.30;;
83139;SDS011;73027;54.208;19.128;2023-10-19T13:03:23;7.80;;;1.65;;
83139;SDS011;73027;54.208;19.128;2023-10-19T13:05:52;4.90;;;1.40;;
83139;SDS011;73027;54.208;19.128;2023-10-19T13:08:18;4.18;;;0.82;;
83139;SDS011;73027;54.208;19.128;2023-10-19T13:10:44;9.77;;;1.77;;
83139;SDS011;73027;54.208;19.128;2023-10-19T13:13:11;4.40;;;1.17;;
83139;SDS011;73027;54.208;19.128;2023-10-19T13:15:40;7.40;;;1.70;;
83139;SDS011;73027;54.208;19.128;2023-10-19T13:18:07;4.68;;;1.20;;
83139;SDS011;73027;54.208;19.128;2023-10-19T13:23:04;6.15;;;1.35;;
83139;SDS011;73027;54.208;19.128;2023-10-19T13:25:32;6.80;;;1.90;;
83139;SDS011;73027;54.208;19.128;2023-10-19T13:28:13;5.72;;;1.10;;
83139;SDS011;73027;54.208;19.128;2023-10-19T13:30:40;7.53;;;1.08;;
83139;SDS011;73027;54.208;19.128;2023-10-19T13:33:07;4.97;;;1.40;;
83139;SDS011;73027;54.208;19.128;2023-10-19T13:35:36;4.50;;;1.42;;
83139;SDS011;73027;54.208;19.128;2023-10-19T13:38:06;6.68;;;1.33;;
83139;SDS011;73027;54.208;19.128;2023-10-19T13:40:33;4.05;;;1.05;;
83139;SDS011;73027;54.208;19.128;2023-10-19T13:42:59;5.50;;;1.60;;
83139;SDS011;73027;54.208;19.128;2023-10-19T13:45:25;6.10;;;1.40;;
83139;SDS011;73027;54.208;19.128;2023-10-19T13:47:51;6.90;;;1.30;;
83139;SDS011;73027;54.208;19.128;2023-10-19T13:50:22;5.53;;;1.60;;
83139;SDS011;73027;54.208;19.128;2023-10-19T13:52:49;7.07;;;1.60;;
83139;SDS011;73027;54.208;19.128;2023-10-19T13:55:24;4.95;;;1.52;;
83139;SDS011;73027;54.208;19.128;2023-10-19T13:57:50;3.38;;;1.17;;
83139;SDS011;73027;54.208;19.128;2023-10-19T14:00:17;11.15;;;3.15;;
83139;SDS011;73027;54.208;19.128;2023-10-19T14:02:58;6.18;;;1.70;;
83139;SDS011;73027;54.208;19.128;2023-10-19T14:05:25;8.70;;;1.63;;
83139;SDS011;73027;54.208;19.128;2023-10-19T14:07:51;9.43;;;1.73;;
83139;SDS011;73027;54.208;19.128;2023-10-19T14:10:19;5.05;;;1.23;;
83139;SDS011;73027;54.208;19.128;2023-10-19T14:12:46;4.95;;;1.38;;
83139;SDS011;73027;54.208;19.128;2023-10-19T14:15:15;6.60;;;1.55;;
83139;SDS011;73027;54.208;19.128;2023-10-19T14:17:42;4.88;;;1.50;;
83139;SDS011;73027;54.208;19.128;2023-10-19T14:20:10;5.68;;;1.35;;
83139;SDS011;73027;54.208;19.128;2023-10-19T14:22:45;6.35;;;1.60;;
83139;SDS011;73027;54.208;19.128;2023-10-19T14:25:13;9.32;;;2.38;;
83139;SDS011;73027;54.208;19.128;2023-10-19T14:27:39;9.30;;;2.17;;
83139;SDS011;73027;54.208;19.128;2023-10-19T14:30:06;7.07;;;2.47;;
83139;SDS011;73027;54.208;19.128;2023-10-19T14:32:33;33.38;;;17.05;;
83139;SDS011;73027;54.208;19.128;2023-10-19T14:34:58;6.13;;;2.10;;
83139;SDS011;73027;54.208;19.128;2023-10-19T14:37:24;7.57;;;1.67;;
83139;SDS011;73027;54.208;19.128;2023-10-19T14:39:50;8.18;;;2.05;;
83139;SDS011;73027;54.208;19.128;2023-10-19T14:42:15;7.38;;;1.58;;
83139;SDS011;73027;54.208;19.128;2023-10-19T14:44:40;10.98;;;3.40;;
83139;SDS011;73027;54.208;19.128;2023-10-19T14:47:06;9.95;;;2.90;;
83139;SDS011;73027;54.208;19.128;2023-10-19T14:49:31;7.07;;;1.85;;
83139;SDS011;73027;54.208;19.128;2023-10-19T14:51:57;11.35;;;3.75;;
83139;SDS011;73027;54.208;19.128;2023-10-19T14:54:23;5.82;;;2.00;;
83139;SDS011;73027;54.208;19.128;2023-10-19T14:56:48;5.88;;;2.03;;
83139;SDS011;73027;54.208;19.128;2023-10-19T14:59:14;3.65;;;1.25;;
83139;SDS011;73027;54.208;19.128;2023-10-19T15:01:39;5.90;;;1.23;;